createdAt,value
2022-08-25T00:02:03.020Z,2.67
2022-08-25T00:04:30.275Z,5.22
2022-08-25T00:07:02.143Z,5.40
2022-08-25T00:09:30.677Z,4.63
2022-08-25T00:11:57.484Z,4.30
2022-08-25T00:14:37.153Z,4.55
2022-08-25T00:17:04.780Z,4.95
2022-08-25T00:19:35.002Z,4.68
2022-08-25T00:22:02.690Z,6.95
2022-08-25T00:24:29.943Z,4.80
2022-08-25T00:26:58.769Z,4.22
2022-08-25T00:29:26.799Z,3.55
2022-08-25T00:31:55.057Z,5.25
2022-08-25T00:34:30.137Z,3.58
2022-08-25T00:36:57.016Z,2.88
2022-08-25T00:39:24.964Z,5.00
2022-08-25T00:41:53.966Z,6.10
2022-08-25T00:44:20.798Z,3.22
2022-08-25T00:46:54.551Z,5.10
2022-08-25T00:49:28.359Z,3.25
2022-08-25T00:52:25.866Z,6.32
2022-08-25T00:55:03.017Z,4.65
2022-08-25T00:57:37.830Z,3.55
2022-08-25T01:00:14.475Z,5.18
2022-08-25T01:02:41.606Z,5.28
2022-08-25T01:05:08.822Z,5.45
2022-08-25T01:07:36.513Z,3.92
2022-08-25T01:10:04.832Z,5.55
2022-08-25T01:12:31.466Z,4.60
2022-08-25T01:14:58.802Z,3.83
2022-08-25T01:17:28.167Z,2.92
2022-08-25T01:19:55.873Z,3.58
2022-08-25T01:22:22.858Z,4.88
2022-08-25T01:25:27.747Z,7.03
2022-08-25T01:27:54.306Z,9.57
2022-08-25T01:30:21.766Z,7.60
2022-08-25T01:32:48.860Z,5.32
2022-08-25T01:35:15.885Z,7.65
2022-08-25T01:37:42.639Z,4.47
2022-08-25T01:40:09.775Z,3.90
2022-08-25T01:43:07.749Z,4.18
2022-08-25T01:45:35.551Z,7.90
2022-08-25T01:48:02.661Z,15.52
2022-08-25T01:50:29.538Z,5.30
2022-08-25T01:53:19.495Z,8.48
2022-08-25T01:55:51.966Z,3.90
2022-08-25T01:58:40.405Z,3.05
2022-08-25T02:01:10.132Z,3.30
2022-08-25T02:03:42.296Z,4.43
2022-08-25T02:06:12.427Z,7.32
2022-08-25T02:08:39.873Z,7.90
2022-08-25T02:11:11.921Z,3.40
2022-08-25T02:13:40.418Z,3.97
2022-08-25T02:16:08.435Z,4.63
2022-08-25T02:18:35.145Z,5.25
2022-08-25T02:21:02.248Z,5.35
2022-08-25T02:23:28.888Z,3.72
2022-08-25T02:25:57.245Z,4.72
2022-08-25T02:28:24.316Z,5.47
2022-08-25T02:30:53.225Z,4.25
2022-08-25T02:33:26.926Z,5.20
2022-08-25T02:35:57.919Z,3.15
2022-08-25T02:38:25.092Z,4.38
2022-08-25T02:40:52.351Z,3.90
2022-08-25T02:43:19.015Z,3.33
2022-08-25T02:45:45.698Z,4.43
2022-08-25T02:48:12.318Z,5.47
2022-08-25T02:50:39.062Z,4.93
2022-08-25T02:53:05.752Z,5.70
2022-08-25T02:55:34.665Z,6.25
2022-08-25T02:58:01.284Z,4.18
2022-08-25T03:00:27.901Z,8.32
2022-08-25T03:02:54.503Z,7.05
2022-08-25T03:05:21.379Z,4.40
2022-08-25T03:07:48.213Z,8.60
2022-08-25T03:10:18.839Z,5.20
2022-08-25T03:12:45.739Z,6.57
2022-08-25T03:15:18.683Z,5.68
2022-08-25T03:17:46.202Z,4.38
2022-08-25T03:20:13.372Z,5.18
2022-08-25T03:22:40.081Z,5.03
2022-08-25T03:25:25.725Z,5.35
2022-08-25T03:27:52.528Z,4.68
2022-08-25T03:30:20.069Z,8.82
2022-08-25T03:32:46.841Z,8.70
2022-08-25T03:35:13.613Z,7.45
2022-08-25T03:37:40.798Z,7.72
2022-08-25T03:40:13.605Z,7.20
2022-08-25T03:42:45.155Z,9.88
2022-08-25T03:45:14.252Z,10.48
2022-08-25T03:47:41.213Z,7.43
2022-08-25T03:50:10.403Z,7.47
2022-08-25T03:52:42.392Z,8.65
2022-08-25T03:55:11.875Z,7.53
2022-08-25T03:57:38.617Z,8.52
2022-08-25T04:00:08.172Z,6.18
2022-08-25T04:02:34.877Z,5.57
2022-08-25T04:05:01.742Z,6.95
2022-08-25T04:07:28.352Z,8.55
2022-08-25T04:09:56.166Z,4.72
2022-08-25T04:12:23.241Z,5.20
2022-08-25T04:14:50.335Z,8.10
2022-08-25T04:17:17.556Z,10.02
2022-08-25T04:19:44.341Z,6.07
2022-08-25T04:22:11.266Z,7.18
2022-08-25T04:24:39.956Z,5.65
2022-08-25T04:27:06.535Z,14.05
2022-08-25T04:29:33.942Z,6.82
2022-08-25T04:32:00.610Z,7.85
2022-08-25T04:34:30.296Z,5.72
2022-08-25T04:37:03.379Z,4.55
2022-08-25T04:39:29.978Z,5.90
2022-08-25T04:41:56.682Z,6.70
2022-08-25T04:44:23.619Z,6.43
2022-08-25T04:46:50.324Z,4.13
2022-08-25T04:49:16.978Z,7.35
2022-08-25T04:51:43.740Z,10.57
2022-08-25T04:54:13.814Z,5.43
2022-08-25T04:56:41.497Z,3.97
2022-08-25T04:59:11.836Z,3.88
2022-08-25T05:01:39.810Z,5.28
2022-08-25T05:04:08.847Z,5.22
2022-08-25T05:06:41.919Z,7.13
2022-08-25T05:09:09.998Z,6.15
2022-08-25T05:11:37.399Z,9.55
2022-08-25T05:14:04.710Z,4.60
2022-08-25T05:16:31.713Z,5.50
2022-08-25T05:18:58.507Z,4.65
2022-08-25T05:21:28.733Z,8.18
2022-08-25T05:23:57.735Z,4.72
2022-08-25T05:26:26.428Z,4.68
2022-08-25T05:28:55.069Z,8.45
2022-08-25T05:31:23.820Z,4.45
2022-08-25T05:33:51.063Z,7.95
2022-08-25T05:36:20.145Z,8.63
2022-08-25T05:38:47.327Z,4.57
2022-08-25T05:41:16.849Z,6.57
2022-08-25T05:43:45.910Z,8.02
2022-08-25T05:46:13.317Z,7.07
2022-08-25T05:48:40.320Z,6.97
2022-08-25T05:51:10.343Z,5.97
2022-08-25T05:53:39.215Z,11.30
2022-08-25T05:56:06.150Z,6.28
2022-08-25T05:58:32.882Z,5.20
2022-08-25T06:01:19.629Z,11.43
2022-08-25T06:03:47.638Z,7.80
2022-08-25T06:06:15.982Z,4.45
2022-08-25T06:08:44.281Z,5.70
2022-08-25T06:11:12.699Z,7.10
2022-08-25T06:13:39.971Z,8.48
2022-08-25T06:16:07.205Z,8.10
2022-08-25T06:18:33.909Z,9.30
2022-08-25T06:21:08.387Z,9.27
2022-08-25T06:23:35.027Z,5.20
2022-08-25T06:26:01.986Z,5.28
2022-08-25T06:28:28.641Z,7.28
2022-08-25T06:31:00.107Z,8.82
2022-08-25T06:35:56.023Z,7.82
2022-08-25T06:38:23.872Z,8.63
2022-08-25T06:40:52.065Z,6.70
2022-08-25T06:43:22.133Z,14.10
2022-08-25T06:45:48.827Z,10.90
2022-08-25T06:48:15.941Z,8.60
2022-08-25T06:50:43.386Z,8.95
2022-08-25T06:53:10.046Z,14.45
2022-08-25T06:55:36.959Z,10.20
2022-08-25T06:58:05.211Z,7.82
2022-08-25T07:00:33.420Z,8.75
2022-08-25T07:03:01.489Z,5.32
2022-08-25T07:05:40.810Z,7.68
2022-08-25T07:08:11.879Z,5.13
2022-08-25T07:10:39.009Z,7.30
2022-08-25T07:13:05.682Z,7.72
2022-08-25T07:15:32.309Z,5.43
2022-08-25T07:17:59.112Z,4.18
2022-08-25T07:22:53.149Z,8.98
2022-08-25T07:25:19.890Z,4.53
2022-08-25T07:27:46.595Z,5.40
2022-08-25T07:30:13.480Z,6.32
2022-08-25T07:32:43.015Z,7.88
2022-08-25T07:35:18.958Z,5.85
2022-08-25T07:37:58.177Z,6.10
2022-08-25T07:40:31.803Z,11.02
2022-08-25T07:43:01.693Z,5.97
2022-08-25T07:45:31.644Z,8.32
2022-08-25T07:48:01.094Z,7.75
2022-08-25T07:50:29.384Z,6.03
2022-08-25T07:52:57.856Z,8.48
2022-08-25T07:55:27.218Z,6.75
2022-08-25T07:57:57.238Z,10.20
2022-08-25T08:00:27.791Z,7.75
2022-08-25T08:02:54.916Z,9.20
2022-08-25T08:05:24.017Z,7.40
2022-08-25T08:07:51.598Z,8.35
2022-08-25T08:10:47.893Z,8.02
2022-08-25T08:13:07.565Z,6.65
2022-08-25T08:15:35.500Z,8.95
2022-08-25T08:18:03.169Z,8.93
2022-08-25T08:20:42.706Z,11.93
2022-08-25T08:23:11.165Z,8.82
2022-08-25T08:25:37.904Z,7.13
2022-08-25T08:28:04.570Z,6.30
2022-08-25T08:30:36.592Z,11.73
2022-08-25T08:33:10.026Z,8.52
2022-08-25T08:35:38.586Z,9.55
2022-08-25T08:38:13.135Z,8.05
2022-08-25T08:41:13.802Z,7.28
2022-08-25T08:43:43.076Z,7.43
2022-08-25T08:46:10.015Z,9.10
2022-08-25T08:48:59.068Z,9.00
2022-08-25T08:51:36.611Z,10.02
2022-08-25T08:54:20.523Z,13.90
2022-08-25T08:56:55.243Z,10.20
2022-08-25T08:59:30.040Z,9.38
2022-08-25T09:02:04.064Z,8.60
2022-08-25T09:04:57.999Z,8.45
2022-08-25T09:07:32.956Z,10.55
2022-08-25T09:09:59.811Z,12.55
2022-08-25T09:12:34.204Z,11.93
2022-08-25T09:15:00.881Z,16.67
2022-08-25T09:17:54.695Z,9.95
2022-08-25T09:20:40.486Z,13.00
2022-08-25T09:23:31.667Z,8.18
2022-08-25T09:26:27.411Z,9.93
2022-08-25T09:29:06.362Z,11.57
2022-08-25T09:31:43.339Z,10.27
2022-08-25T09:34:21.456Z,7.75
2022-08-25T09:36:52.822Z,14.23
2022-08-25T09:39:21.132Z,18.35
2022-08-25T09:41:57.396Z,8.98
2022-08-25T09:44:42.345Z,18.58
2022-08-25T09:47:18.319Z,10.27
2022-08-25T09:49:51.101Z,13.73
2022-08-25T09:52:32.820Z,8.90
2022-08-25T09:55:16.313Z,16.98
2022-08-25T09:57:42.876Z,8.27
2022-08-25T10:00:34.006Z,9.40
2022-08-25T10:03:24.842Z,15.10
2022-08-25T10:06:07.816Z,14.85
2022-08-25T10:08:45.707Z,27.85
2022-08-25T10:11:15.371Z,61.78
2022-08-25T10:14:00.667Z,34.42
2022-08-25T10:16:36.098Z,26.88
2022-08-25T10:19:08.111Z,23.48
2022-08-25T10:21:37.100Z,27.52
2022-08-25T10:24:05.965Z,26.58
2022-08-25T10:26:52.340Z,25.42
2022-08-25T10:29:45.829Z,30.52
2022-08-25T10:32:18.292Z,26.08
2022-08-25T10:34:51.451Z,24.08
2022-08-25T10:37:53.449Z,20.30
2022-08-25T10:40:45.103Z,19.58
2022-08-25T10:43:49.808Z,26.27
2022-08-25T10:46:36.785Z,17.90
2022-08-25T10:49:03.380Z,14.95
2022-08-25T10:51:41.535Z,11.02
2022-08-25T10:55:12.807Z,11.63
2022-08-25T10:57:46.520Z,15.02
2022-08-25T11:00:17.963Z,11.52
2022-08-25T11:02:47.348Z,11.60
2022-08-25T11:05:28.290Z,11.90
2022-08-25T11:08:06.752Z,19.70
2022-08-25T11:11:09.452Z,14.40
2022-08-25T11:13:47.663Z,20.13
2022-08-25T11:16:26.939Z,31.38
2022-08-25T11:19:17.084Z,30.95
2022-08-25T11:21:46.466Z,15.93
2022-08-25T11:24:16.095Z,13.98
2022-08-25T11:26:51.719Z,14.20
2022-08-25T11:29:34.191Z,10.75
2022-08-25T11:32:02.020Z,11.35
2022-08-25T11:34:33.240Z,9.77
2022-08-25T11:37:11.124Z,16.70
2022-08-25T11:40:00.253Z,10.63
2022-08-25T11:42:36.120Z,11.82
2022-08-25T11:45:28.918Z,13.25
2022-08-25T11:48:49.963Z,10.13
2022-08-25T11:51:36.514Z,9.10
2022-08-25T11:54:15.370Z,18.52
2022-08-25T11:56:42.193Z,13.23
2022-08-25T11:59:10.001Z,12.75
2022-08-25T12:01:40.517Z,11.02
2022-08-25T12:04:31.241Z,8.07
2022-08-25T12:09:55.089Z,8.82
2022-08-25T12:12:32.529Z,10.98
2022-08-25T12:15:21.147Z,43.50
2022-08-25T12:18:10.647Z,16.90
2022-08-25T12:20:53.746Z,12.18
2022-08-25T12:23:32.376Z,11.75
2022-08-25T12:26:20.891Z,15.98
2022-08-25T12:28:59.817Z,8.65
2022-08-25T12:31:43.228Z,10.80
2022-08-25T12:34:37.643Z,11.65
2022-08-25T12:37:13.324Z,9.02
2022-08-25T12:39:51.138Z,13.15
2022-08-25T12:42:28.638Z,9.25
2022-08-25T12:45:31.424Z,9.05
2022-08-25T12:48:27.944Z,7.97
2022-08-25T12:51:03.365Z,10.00
2022-08-25T12:53:38.892Z,10.57
2022-08-25T12:56:05.505Z,7.40
2022-08-25T12:58:59.883Z,12.10
2022-08-25T13:01:36.728Z,13.07
2022-08-25T13:04:22.705Z,8.65
2022-08-25T13:07:23.196Z,9.63
2022-08-25T13:10:15.850Z,9.48
2022-08-25T13:13:06.192Z,9.60
2022-08-25T13:15:41.096Z,8.45
2022-08-25T13:18:27.665Z,8.57
2022-08-25T13:21:29.111Z,9.88
2022-08-25T13:24:01.375Z,8.77
2022-08-25T13:26:48.440Z,7.68
2022-08-25T13:29:26.295Z,11.55
2022-08-25T13:31:59.926Z,8.27
2022-08-25T13:34:34.744Z,7.10
2022-08-25T13:37:29.767Z,12.68
2022-08-25T13:40:17.926Z,11.98
2022-08-25T13:42:54.403Z,9.00
2022-08-25T13:45:29.997Z,8.35
2022-08-25T13:47:59.423Z,14.80
2022-08-25T13:50:26.333Z,7.85
2022-08-25T13:52:56.149Z,9.20
2022-08-25T13:55:27.588Z,9.25
2022-08-25T13:57:59.430Z,10.13
2022-08-25T14:00:32.433Z,7.22
2022-08-25T14:03:02.151Z,9.77
2022-08-25T14:05:42.720Z,9.30
2022-08-25T14:08:31.966Z,10.93
2022-08-25T14:11:29.711Z,11.63
2022-08-25T14:14:12.623Z,11.15
2022-08-25T14:16:47.305Z,10.93
2022-08-25T14:19:21.509Z,14.02
2022-08-25T14:21:49.704Z,9.07
2022-08-25T14:24:23.964Z,7.47
2022-08-25T14:26:54.155Z,8.95
2022-08-25T14:29:22.303Z,12.27
2022-08-25T14:31:50.024Z,8.45
2022-08-25T14:34:21.541Z,11.27
2022-08-25T14:36:48.956Z,8.82
2022-08-25T14:39:16.163Z,10.38
2022-08-25T14:41:47.420Z,17.17
2022-08-25T14:44:20.273Z,7.70
2022-08-25T14:46:52.798Z,10.30
2022-08-25T14:49:25.434Z,8.02
2022-08-25T14:51:52.319Z,11.57
2022-08-25T14:54:25.975Z,7.82
2022-08-25T14:56:53.615Z,11.57
2022-08-25T14:59:20.356Z,17.95
2022-08-25T15:01:47.542Z,9.07
2022-08-25T15:04:23.436Z,9.35
2022-08-25T15:06:56.304Z,8.65
2022-08-25T15:09:23.252Z,10.75
2022-08-25T15:11:54.593Z,8.75
2022-08-25T15:14:28.909Z,6.45
2022-08-25T15:16:59.991Z,10.68
2022-08-25T15:19:27.571Z,11.65
2022-08-25T15:21:58.248Z,11.68
2022-08-25T15:24:27.339Z,8.57
2022-08-25T15:27:03.955Z,10.18
2022-08-25T15:29:34.773Z,8.90
2022-08-25T15:32:05.236Z,10.65
2022-08-25T15:34:32.260Z,11.90
2022-08-25T15:37:07.806Z,13.57
2022-08-25T15:39:35.197Z,13.10
2022-08-25T15:42:02.656Z,10.07
2022-08-25T15:44:33.861Z,9.45
2022-08-25T15:47:02.931Z,12.68
2022-08-25T15:49:31.403Z,8.57
2022-08-25T15:51:58.351Z,12.88
2022-08-25T15:54:26.802Z,9.60
2022-08-25T15:56:55.041Z,13.90
2022-08-25T15:59:21.898Z,13.02
2022-08-25T16:01:48.928Z,14.88
2022-08-25T16:04:15.791Z,8.65
2022-08-25T16:06:44.601Z,12.65
2022-08-25T16:09:12.059Z,12.18
2022-08-25T16:11:39.047Z,11.95
2022-08-25T16:14:06.165Z,13.10
2022-08-25T16:16:33.369Z,9.27
2022-08-25T16:19:00.532Z,7.07
2022-08-25T16:21:31.176Z,11.10
2022-08-25T16:24:04.411Z,10.38
2022-08-25T16:26:36.438Z,14.90
2022-08-25T16:29:06.430Z,13.90
2022-08-25T16:31:33.426Z,10.00
2022-08-25T16:34:01.572Z,15.68
2022-08-25T16:36:28.551Z,13.10
2022-08-25T16:38:57.453Z,8.93
2022-08-25T16:41:34.114Z,8.23
2022-08-25T16:44:10.983Z,8.05
2022-08-25T16:46:40.638Z,9.27
2022-08-25T16:49:07.833Z,13.13
2022-08-25T16:51:34.575Z,9.63
2022-08-25T16:54:22.256Z,8.73
2022-08-25T16:56:54.895Z,7.38
2022-08-25T16:59:22.266Z,12.40
2022-08-25T17:01:50.804Z,8.20
2022-08-25T17:04:17.574Z,9.35
2022-08-25T17:06:51.819Z,13.20
2022-08-25T17:09:23.809Z,10.35
2022-08-25T17:11:54.284Z,9.20
2022-08-25T17:14:21.992Z,12.85
2022-08-25T17:16:51.173Z,9.13
2022-08-25T17:19:18.632Z,10.27
2022-08-25T17:21:49.984Z,13.93
2022-08-25T17:24:17.209Z,8.00
2022-08-25T17:26:49.866Z,9.35
2022-08-25T17:29:19.601Z,17.25
2022-08-25T17:31:48.402Z,10.40
2022-08-25T17:34:16.141Z,13.98
2022-08-25T17:36:44.054Z,9.82
2022-08-25T17:39:13.075Z,14.80
2022-08-25T17:41:42.035Z,7.93
2022-08-25T17:44:08.671Z,12.52
2022-08-25T17:46:38.452Z,14.50
2022-08-25T17:49:09.112Z,8.95
2022-08-25T17:51:36.551Z,15.88
2022-08-25T17:54:03.144Z,18.13
2022-08-25T17:56:30.160Z,10.35
2022-08-25T17:58:57.233Z,8.18
2022-08-25T18:01:30.583Z,15.07
2022-08-25T18:03:59.242Z,14.07
2022-08-25T18:06:29.571Z,12.50
2022-08-25T18:08:59.977Z,14.80
2022-08-25T18:11:27.988Z,16.30
2022-08-25T18:13:55.036Z,15.13
2022-08-25T18:16:22.708Z,15.70
2022-08-25T18:18:49.435Z,15.73
2022-08-25T18:21:19.198Z,13.23
2022-08-25T18:23:46.656Z,12.27
2022-08-25T18:26:15.327Z,15.77
2022-08-25T18:28:43.995Z,15.05
2022-08-25T18:31:13.196Z,15.55
2022-08-25T18:33:44.612Z,12.55
2022-08-25T18:36:12.533Z,12.35
2022-08-25T18:38:59.938Z,12.43
2022-08-25T18:41:32.778Z,15.70
2022-08-25T18:43:59.330Z,9.50
2022-08-25T18:46:26.097Z,12.75
2022-08-25T18:48:53.276Z,12.35
2022-08-25T18:51:23.266Z,8.73
2022-08-25T18:53:54.725Z,14.97
2022-08-25T18:56:26.740Z,12.98
2022-08-25T18:58:53.403Z,15.40
2022-08-25T19:01:21.350Z,15.00
2022-08-25T19:03:48.363Z,15.65
2022-08-25T19:06:15.653Z,18.13
2022-08-25T19:08:42.371Z,13.68
2022-08-25T19:11:10.113Z,10.25
2022-08-25T19:13:37.623Z,14.35
2022-08-25T19:16:30.050Z,15.65
2022-08-25T19:18:57.054Z,11.27
2022-08-25T19:21:25.244Z,16.30
2022-08-25T19:23:52.337Z,9.45
2022-08-25T19:26:19.549Z,11.02
2022-08-25T19:28:48.857Z,13.82
2022-08-25T19:31:20.353Z,15.55
2022-08-25T19:33:49.218Z,12.98
2022-08-25T19:36:18.494Z,17.70
2022-08-25T19:38:48.455Z,17.58
2022-08-25T19:41:19.416Z,19.10
2022-08-25T19:43:55.226Z,15.43
2022-08-25T19:46:23.361Z,12.18
2022-08-25T19:48:50.471Z,11.23
2022-08-25T19:51:19.395Z,10.77
2022-08-25T19:53:51.171Z,26.02
2022-08-25T19:56:20.752Z,16.27
2022-08-25T19:58:47.834Z,16.75
2022-08-25T20:01:18.365Z,12.60
2022-08-25T20:03:45.280Z,12.65
2022-08-25T20:06:12.349Z,21.15
2022-08-25T20:08:43.180Z,15.15
2022-08-25T20:11:10.814Z,13.63
2022-08-25T20:13:37.551Z,14.80
2022-08-25T20:16:05.595Z,18.33
2022-08-25T20:18:32.562Z,14.52
2022-08-25T20:20:59.297Z,15.95
2022-08-25T20:23:44.582Z,16.88
2022-08-25T20:26:11.312Z,22.67
2022-08-25T20:28:42.241Z,15.48
2022-08-25T20:31:09.407Z,13.95
2022-08-25T20:33:36.240Z,14.52
2022-08-25T20:36:04.839Z,12.10
2022-08-25T20:38:32.114Z,14.68
2022-08-25T20:41:00.751Z,15.25
2022-08-25T20:43:30.808Z,13.35
2022-08-25T20:46:01.798Z,12.65
2022-08-25T20:50:57.774Z,16.88
2022-08-25T20:53:25.769Z,17.60
2022-08-25T20:55:56.185Z,12.77
2022-08-25T20:58:26.566Z,11.32
2022-08-25T21:00:53.992Z,19.00
2022-08-25T21:03:21.016Z,10.75
2022-08-25T21:05:54.091Z,14.30
2022-08-25T21:08:21.272Z,14.30
2022-08-25T21:10:51.885Z,11.10
2022-08-25T21:13:21.267Z,13.23
2022-08-25T21:15:50.429Z,9.95
2022-08-25T21:18:17.059Z,11.55
2022-08-25T21:20:47.126Z,14.95
2022-08-25T21:23:14.887Z,10.27
2022-08-25T21:25:44.607Z,12.38
2022-08-25T21:28:11.584Z,19.65
2022-08-25T21:30:44.715Z,13.32
2022-08-25T21:33:16.450Z,20.52
2022-08-25T21:35:43.393Z,15.13
2022-08-25T21:38:10.031Z,19.80
2022-08-25T21:40:37.229Z,15.70
2022-08-25T21:43:07.379Z,15.88
2022-08-25T21:45:46.141Z,16.63
2022-08-25T21:48:13.758Z,19.23
2022-08-25T21:50:41.134Z,16.02
2022-08-25T21:53:09.657Z,20.65
2022-08-25T21:55:41.899Z,17.35
2022-08-25T21:58:08.688Z,14.40
2022-08-25T22:00:36.084Z,12.57
2022-08-25T22:03:02.774Z,14.27
2022-08-25T22:05:29.456Z,15.52
2022-08-25T22:07:56.037Z,13.68
2022-08-25T22:10:22.775Z,18.10
2022-08-25T22:13:01.433Z,12.82
2022-08-25T22:15:29.450Z,15.07
2022-08-25T22:17:56.040Z,14.85
2022-08-25T22:20:25.094Z,13.18
2022-08-25T22:22:56.500Z,14.10
2022-08-25T22:25:23.679Z,13.75
2022-08-25T22:27:56.430Z,13.63
2022-08-25T22:30:29.668Z,13.50
2022-08-25T22:33:00.483Z,13.15
2022-08-25T22:35:28.086Z,10.48
2022-08-25T22:37:54.728Z,16.92
2022-08-25T22:40:21.450Z,11.98
2022-08-25T22:42:48.543Z,17.17
2022-08-25T22:45:15.515Z,14.13
2022-08-25T22:47:42.313Z,14.32
2022-08-25T22:50:09.396Z,18.02
2022-08-25T22:52:36.114Z,17.23
2022-08-25T22:55:03.130Z,11.48
2022-08-25T22:57:29.738Z,11.82
2022-08-25T22:59:56.740Z,12.80
2022-08-25T23:02:23.433Z,12.95
2022-08-25T23:04:50.084Z,13.32
2022-08-25T23:07:16.942Z,13.98
2022-08-25T23:09:44.584Z,17.35
2022-08-25T23:12:11.725Z,13.15
2022-08-25T23:14:42.259Z,13.45
2022-08-25T23:17:11.518Z,14.05
2022-08-25T23:19:39.037Z,14.65
2022-08-25T23:22:12.613Z,22.27
2022-08-25T23:24:48.985Z,18.45
2022-08-25T23:27:19.835Z,17.15
2022-08-25T23:29:48.996Z,21.75
2022-08-25T23:32:17.848Z,15.13
2022-08-25T23:34:46.773Z,8.57
2022-08-25T23:37:14.365Z,15.75
2022-08-25T23:39:41.628Z,11.23
2022-08-25T23:42:08.885Z,11.77
2022-08-25T23:44:36.786Z,14.32
2022-08-25T23:47:06.753Z,11.60
2022-08-25T23:49:33.757Z,15.15
2022-08-25T23:52:01.248Z,22.45
2022-08-25T23:54:30.996Z,12.38
2022-08-25T23:56:58.474Z,12.37
2022-08-25T23:59:25.420Z,7.95
